Time;durP1;ratioP1;P1;durP2;ratioP2;P2;SDS_P1;SDS_P2;PMS_P1;PMS_P2;Temp;Humidity;BMP_temperature;BMP_pressure;BME280_temperature;BME280_humidity;BME280_pressure;Samples;Min_cycle;Max_cycle;Signal;HPM_P1;HPM_P2
2021/07/06 00:01:13;;;;;;;9.63;7.97;;;;;;;;;;5022061;28;20229;-73
2021/07/06 00:03:38;;;;;;;11.50;7.82;;;;;;;;;;5023089;28;20194;-73
2021/07/06 00:06:04;;;;;;;13.48;8.13;;;;;;;;;;5013478;28;20546;-73
2021/07/06 00:08:29;;;;;;;11.30;7.63;;;;;;;;;;5026670;28;20185;-73
2021/07/06 00:10:54;;;;;;;9.90;6.25;;;;;;;;;;5013502;28;20218;-72
2021/07/06 00:13:20;;;;;;;7.63;6.70;;;;;;;;;;5024709;28;20260;-72
2021/07/06 00:15:45;;;;;;;8.98;6.90;;;;;;;;;;5014070;28;20201;-73
2021/07/06 00:18:12;;;;;;;8.85;6.40;;;;;;;;;;5006937;28;20189;-71
2021/07/06 00:20:37;;;;;;;7.28;6.13;;;;;;;;;;5012187;28;20241;-72
2021/07/06 00:23:04;;;;;;;7.60;6.32;;;;;;;;;;5020420;28;20192;-72
2021/07/06 00:25:30;;;;;;;7.10;5.63;;;;;;;;;;5014555;28;20204;-72
2021/07/06 00:27:55;;;;;;;7.07;6.10;;;;;;;;;;5023331;28;20263;-71
2021/07/06 00:30:22;;;;;;;8.20;6.28;;;;;;;;;;5012347;28;20229;-72
2021/07/06 00:32:47;;;;;;;6.82;6.00;;;;;;;;;;5019500;28;20206;-72
2021/07/06 00:35:13;;;;;;;8.93;6.35;;;;;;;;;;5017656;28;20262;-72
2021/07/06 00:37:38;;;;;;;7.75;5.95;;;;;;;;;;5014825;28;20278;-72
2021/07/06 00:40:06;;;;;;;8.02;6.25;;;;;;;;;;5009246;28;20187;-72
2021/07/06 00:42:32;;;;;;;10.63;5.75;;;;;;;;;;5007844;28;20212;-72
2021/07/06 00:44:57;;;;;;;11.32;6.57;;;;;;;;;;5024322;28;20186;-72
2021/07/06 00:47:37;;;;;;;13.70;7.10;;;;;;;;;;5011947;28;20636;-72
2021/07/06 00:50:06;;;;;;;11.32;6.45;;;;;;;;;;5018123;28;20212;-72
2021/07/06 00:52:32;;;;;;;8.05;6.28;;;;;;;;;;5012219;28;20274;-70
2021/07/06 00:54:57;;;;;;;11.63;6.38;;;;;;;;;;5020819;28;20213;-73
2021/07/06 00:57:29;;;;;;;7.38;5.45;;;;;;;;;;5009981;28;20531;-72
2021/07/06 01:00:07;;;;;;;10.25;5.85;;;;;;;;;;5021538;28;20221;-72
2021/07/06 01:02:32;;;;;;;7.18;5.88;;;;;;;;;;5012872;28;20190;-72
2021/07/06 01:04:58;;;;;;;8.05;6.35;;;;;;;;;;5007123;28;20256;-72
2021/07/06 01:07:24;;;;;;;8.70;5.88;;;;;;;;;;5007993;28;20194;-72
2021/07/06 01:09:50;;;;;;;8.13;5.47;;;;;;;;;;5021145;28;20324;-72
2021/07/06 01:12:15;;;;;;;8.88;6.45;;;;;;;;;;5010804;28;20719;-73
2021/07/06 01:14:41;;;;;;;8.70;5.80;;;;;;;;;;5022766;28;20174;-72
2021/07/06 01:17:07;;;;;;;7.43;6.13;;;;;;;;;;5020658;28;20187;-72
2021/07/06 01:19:32;;;;;;;6.60;5.63;;;;;;;;;;5012202;28;20632;-72
2021/07/06 01:22:05;;;;;;;7.90;5.72;;;;;;;;;;5022727;28;20323;-72
2021/07/06 01:24:31;;;;;;;6.18;5.57;;;;;;;;;;4994813;28;20197;-71
2021/07/06 01:26:57;;;;;;;8.60;5.75;;;;;;;;;;5022739;28;20680;-71
2021/07/06 01:29:22;;;;;;;6.63;5.50;;;;;;;;;;5012140;28;20285;-71
2021/07/06 01:31:49;;;;;;;9.60;6.00;;;;;;;;;;5021980;28;20256;-73
2021/07/06 01:34:14;;;;;;;7.97;5.40;;;;;;;;;;5009823;28;20576;-71
2021/07/06 01:36:39;;;;;;;9.55;6.18;;;;;;;;;;5021776;28;20186;-71
2021/07/06 01:39:05;;;;;;;11.20;4.85;;;;;;;;;;5009729;28;20265;-71
2021/07/06 01:41:30;;;;;;;9.05;4.22;;;;;;;;;;5018670;28;20186;-70
2021/07/06 01:43:56;;;;;;;6.32;3.92;;;;;;;;;;5009478;28;20201;-71
2021/07/06 01:46:21;;;;;;;8.57;4.03;;;;;;;;;;5016802;28;20590;-71
2021/07/06 01:48:46;;;;;;;4.25;3.25;;;;;;;;;;5023116;28;20221;-72
2021/07/06 01:51:12;;;;;;;3.70;3.20;;;;;;;;;;5012642;28;20253;-71
2021/07/06 01:53:37;;;;;;;4.82;3.35;;;;;;;;;;5019777;28;20186;-71
2021/07/06 01:56:03;;;;;;;4.60;2.90;;;;;;;;;;5014795;28;20277;-70
2021/07/06 01:58:31;;;;;;;4.03;3.17;;;;;;;;;;5024580;28;20178;-72
2021/07/06 02:01:00;;;;;;;8.40;4.00;;;;;;;;;;5011331;28;20585;-70
2021/07/06 02:03:25;;;;;;;3.38;2.90;;;;;;;;;;5023820;28;20217;-69
2021/07/06 02:05:59;;;;;;;3.83;3.22;;;;;;;;;;5013173;28;20216;-71
2021/07/06 02:08:25;;;;;;;3.85;2.67;;;;;;;;;;5022754;28;20186;-71
2021/07/06 02:10:53;;;;;;;3.67;2.72;;;;;;;;;;5013940;28;20428;-70
2021/07/06 02:13:23;;;;;;;3.20;2.90;;;;;;;;;;5021698;28;20626;-69
2021/07/06 02:15:52;;;;;;;6.28;3.13;;;;;;;;;;5013823;28;20253;-70
2021/07/06 02:18:19;;;;;;;4.03;2.55;;;;;;;;;;5019694;28;20234;-72
2021/07/06 02:20:46;;;;;;;3.95;2.75;;;;;;;;;;5012798;28;20243;-70
2021/07/06 02:23:12;;;;;;;4.60;2.83;;;;;;;;;;5021076;28;20194;-70
2021/07/06 02:25:37;;;;;;;3.95;2.80;;;;;;;;;;5016700;28;20187;-70
2021/07/06 02:28:03;;;;;;;3.20;2.72;;;;;;;;;;5012785;28;20680;-69
2021/07/06 02:30:28;;;;;;;4.95;2.67;;;;;;;;;;5022808;28;20241;-71
2021/07/06 02:32:54;;;;;;;3.63;2.63;;;;;;;;;;5013384;28;20238;-70
2021/07/06 02:35:20;;;;;;;4.45;2.05;;;;;;;;;;5018773;28;20649;-70
2021/07/06 02:37:46;;;;;;;4.10;2.33;;;;;;;;;;5012736;28;20233;-71
2021/07/06 02:40:13;;;;;;;3.30;2.40;;;;;;;;;;5010311;28;20277;-70
2021/07/06 02:42:39;;;;;;;3.00;2.67;;;;;;;;;;5012086;28;20235;-70
2021/07/06 02:45:09;;;;;;;4.78;2.45;;;;;;;;;;5018823;28;20654;-71
2021/07/06 02:47:35;;;;;;;3.78;2.13;;;;;;;;;;5012429;28;20705;-69
2021/07/06 02:50:01;;;;;;;4.32;2.00;;;;;;;;;;5018675;28;20282;-71
2021/07/06 02:52:26;;;;;;;4.07;2.00;;;;;;;;;;4996131;28;20189;-71
2021/07/06 02:54:51;;;;;;;2.80;2.13;;;;;;;;;;5017165;28;20196;-70
2021/07/06 02:57:35;;;;;;;3.78;2.00;;;;;;;;;;5021463;28;20252;-70
2021/07/06 03:00:23;;;;;;;3.03;1.80;;;;;;;;;;5012260;28;20726;-70
2021/07/06 03:02:51;;;;;;;4.25;1.73;;;;;;;;;;5015686;28;20201;-71
2021/07/06 03:05:18;;;;;;;4.57;1.90;;;;;;;;;;5019476;28;20594;-70
2021/07/06 03:07:45;;;;;;;3.85;1.90;;;;;;;;;;5002211;28;20221;-71
2021/07/06 03:10:15;;;;;;;3.63;1.92;;;;;;;;;;5012799;28;20356;-70
2021/07/06 03:12:42;;;;;;;1.77;1.60;;;;;;;;;;5024467;28;20189;-72
2021/07/06 03:15:10;;;;;;;3.10;2.00;;;;;;;;;;4999090;28;20240;-70
2021/07/06 03:17:36;;;;;;;4.88;2.22;;;;;;;;;;5023666;28;20633;-72
2021/07/06 03:20:02;;;;;;;3.10;2.17;;;;;;;;;;5013836;28;20209;-72
2021/07/06 03:22:28;;;;;;;4.40;1.65;;;;;;;;;;5007994;28;20186;-72
2021/07/06 03:24:54;;;;;;;5.20;2.33;;;;;;;;;;4993581;28;20189;-72
2021/07/06 03:27:19;;;;;;;4.00;2.10;;;;;;;;;;5019201;28;20185;-72
2021/07/06 03:29:45;;;;;;;5.43;2.10;;;;;;;;;;5015128;28;20212;-72
2021/07/06 03:32:11;;;;;;;2.50;2.30;;;;;;;;;;5014215;28;20270;-73
2021/07/06 03:34:37;;;;;;;4.35;2.20;;;;;;;;;;5014068;28;20633;-73
2021/07/06 03:37:02;;;;;;;3.97;2.40;;;;;;;;;;5008277;28;20193;-72
2021/07/06 03:39:28;;;;;;;5.75;2.70;;;;;;;;;;5017410;28;20186;-72
2021/07/06 03:41:53;;;;;;;2.75;2.40;;;;;;;;;;5014702;28;20187;-71
2021/07/06 03:44:19;;;;;;;7.60;2.45;;;;;;;;;;5020489;28;20193;-71
2021/07/06 03:46:44;;;;;;;3.08;2.25;;;;;;;;;;5017159;28;20193;-71
2021/07/06 03:49:10;;;;;;;3.03;2.45;;;;;;;;;;5006872;28;20199;-71
2021/07/06 03:51:36;;;;;;;5.05;2.65;;;;;;;;;;5018910;28;20214;-71
2021/07/06 03:54:01;;;;;;;2.92;2.47;;;;;;;;;;5024376;28;20205;-72
2021/07/06 03:56:26;;;;;;;4.25;2.55;;;;;;;;;;5010865;28;20198;-72
2021/07/06 03:58:52;;;;;;;4.03;2.28;;;;;;;;;;5022392;28;20659;-72
2021/07/06 04:01:17;;;;;;;2.97;2.53;;;;;;;;;;5012774;28;20344;-72
2021/07/06 04:03:42;;;;;;;6.03;2.90;;;;;;;;;;5022138;28;20256;-73
2021/07/06 04:06:08;;;;;;;4.70;2.60;;;;;;;;;;5009920;28;20198;-74
2021/07/06 04:08:33;;;;;;;6.25;2.65;;;;;;;;;;5019430;28;20189;-71
2021/07/06 04:10:58;;;;;;;6.40;2.40;;;;;;;;;;5022879;28;20519;-73
2021/07/06 04:13:24;;;;;;;2.97;2.67;;;;;;;;;;5012044;28;20209;-73
2021/07/06 04:15:49;;;;;;;5.07;2.33;;;;;;;;;;5022797;28;20198;-73
2021/07/06 04:18:14;;;;;;;4.00;2.35;;;;;;;;;;5016728;28;20193;-73
2021/07/06 04:20:40;;;;;;;8.10;2.67;;;;;;;;;;5024583;28;20186;-72
2021/07/06 04:23:07;;;;;;;3.92;2.10;;;;;;;;;;5013254;28;20202;-73
2021/07/06 04:25:35;;;;;;;4.10;2.22;;;;;;;;;;5023462;28;20183;-73
2021/07/06 04:28:00;;;;;;;5.35;2.38;;;;;;;;;;5012163;28;20189;-73
2021/07/06 04:30:25;;;;;;;3.00;2.30;;;;;;;;;;5023232;28;20202;-73
2021/07/06 04:32:51;;;;;;;2.55;2.13;;;;;;;;;;5014387;28;20194;-72
2021/07/06 04:35:18;;;;;;;3.28;1.98;;;;;;;;;;5019096;28;20186;-71
2021/07/06 04:37:43;;;;;;;5.40;2.10;;;;;;;;;;5010882;28;20209;-72
2021/07/06 04:40:09;;;;;;;3.45;2.00;;;;;;;;;;5019216;28;20186;-72
2021/07/06 04:42:34;;;;;;;3.45;2.22;;;;;;;;;;5020400;28;20588;-73
2021/07/06 04:45:00;;;;;;;3.33;2.10;;;;;;;;;;5009068;28;20182;-73
2021/07/06 04:47:25;;;;;;;3.25;2.35;;;;;;;;;;5021695;28;20275;-73
2021/07/06 04:49:51;;;;;;;3.28;2.00;;;;;;;;;;5014803;28;20529;-74
2021/07/06 04:52:16;;;;;;;3.22;1.75;;;;;;;;;;5018605;28;20551;-73
2021/07/06 04:54:42;;;;;;;8.57;1.92;;;;;;;;;;5009359;28;20186;-73
2021/07/06 04:57:07;;;;;;;2.42;1.63;;;;;;;;;;5005746;28;20190;-73
2021/07/06 04:59:33;;;;;;;3.20;1.92;;;;;;;;;;4994704;28;20196;-72
2021/07/06 05:01:58;;;;;;;2.97;1.77;;;;;;;;;;5021976;28;20178;-73
2021/07/06 05:04:24;;;;;;;5.05;1.77;;;;;;;;;;5015852;28;20194;-73
2021/07/06 05:06:49;;;;;;;3.00;1.85;;;;;;;;;;5020437;28;20187;-72
2021/07/06 05:09:14;;;;;;;4.80;2.13;;;;;;;;;;4990138;28;20191;-76
2021/07/06 05:11:40;;;;;;;1.92;1.55;;;;;;;;;;5005628;28;20202;-74
2021/07/06 05:14:05;;;;;;;7.35;2.08;;;;;;;;;;5024030;28;20268;-73
2021/07/06 05:16:31;;;;;;;3.05;1.40;;;;;;;;;;5011059;28;20653;-71
2021/07/06 05:18:57;;;;;;;3.47;1.30;;;;;;;;;;5020388;28;20193;-72
2021/07/06 05:21:23;;;;;;;4.95;1.40;;;;;;;;;;5012967;28;20194;-72
2021/07/06 05:23:48;;;;;;;4.47;1.25;;;;;;;;;;5020908;28;20644;-73
2021/07/06 05:26:14;;;;;;;3.47;1.20;;;;;;;;;;5009672;28;20280;-72
2021/07/06 05:28:39;;;;;;;2.17;1.45;;;;;;;;;;5018781;28;20194;-73
2021/07/06 05:31:05;;;;;;;4.78;1.35;;;;;;;;;;4990888;28;20218;-70
2021/07/06 05:33:30;;;;;;;2.33;1.20;;;;;;;;;;5019747;28;20186;-73
2021/07/06 05:35:56;;;;;;;2.08;1.00;;;;;;;;;;5009956;28;20583;-70
2021/07/06 05:38:22;;;;;;;2.03;1.10;;;;;;;;;;5015185;28;20182;-72
2021/07/06 05:40:54;;;;;;;3.22;1.50;;;;;;;;;;4993759;28;20515;-72
2021/07/06 05:43:19;;;;;;;1.65;1.30;;;;;;;;;;5018488;28;20221;-72
2021/07/06 05:45:44;;;;;;;4.22;1.10;;;;;;;;;;5022417;28;20566;-70
2021/07/06 05:48:10;;;;;;;3.83;1.13;;;;;;;;;;5016890;28;20630;-71
2021/07/06 05:50:35;;;;;;;4.80;1.13;;;;;;;;;;5041868;28;20205;-73
2021/07/06 05:53:00;;;;;;;2.50;1.10;;;;;;;;;;5032924;28;20197;-70
2021/07/06 05:55:26;;;;;;;2.58;1.10;;;;;;;;;;5042016;28;20209;-71
2021/07/06 05:57:51;;;;;;;3.22;1.08;;;;;;;;;;5034447;28;20242;-69
2021/07/06 06:00:17;;;;;;;1.75;1.00;;;;;;;;;;5044096;28;20201;-69
2021/07/06 06:02:42;;;;;;;5.90;1.30;;;;;;;;;;5034030;28;20205;-70
2021/07/06 06:05:08;;;;;;;1.00;0.90;;;;;;;;;;5043063;28;20645;-72
2021/07/06 06:07:41;;;;;;;5.75;1.08;;;;;;;;;;5035682;28;20201;-70
2021/07/06 06:10:08;;;;;;;2.80;0.90;;;;;;;;;;5038615;28;20201;-70
2021/07/06 06:12:34;;;;;;;5.22;1.00;;;;;;;;;;5032631;28;20201;-71
2021/07/06 06:15:00;;;;;;;6.50;1.30;;;;;;;;;;5042017;28;20602;-66
2021/07/06 06:17:25;;;;;;;1.85;1.30;;;;;;;;;;5043440;28;20579;-69
2021/07/06 06:19:51;;;;;;;3.97;1.17;;;;;;;;;;5035454;28;20276;-72
2021/07/06 06:22:16;;;;;;;4.97;1.30;;;;;;;;;;5044240;28;20631;-71
2021/07/06 06:24:41;;;;;;;3.20;1.15;;;;;;;;;;5032119;28;20659;-71
2021/07/06 06:27:07;;;;;;;3.90;1.40;;;;;;;;;;5041182;28;20477;-69
2021/07/06 06:29:32;;;;;;;5.30;1.48;;;;;;;;;;5033809;28;20260;-71
2021/07/06 06:31:58;;;;;;;2.72;1.20;;;;;;;;;;5040175;28;20206;-70
2021/07/06 06:34:23;;;;;;;2.15;1.10;;;;;;;;;;5036931;28;20193;-71
2021/07/06 06:36:48;;;;;;;2.45;1.23;;;;;;;;;;5046301;28;20201;-70
2021/07/06 06:39:14;;;;;;;4.15;1.35;;;;;;;;;;5034296;28;20209;-70
2021/07/06 06:41:39;;;;;;;4.40;1.65;;;;;;;;;;5045205;28;20216;-74
2021/07/06 06:44:05;;;;;;;2.95;1.30;;;;;;;;;;5036452;28;20198;-69
2021/07/06 06:46:30;;;;;;;6.07;1.50;;;;;;;;;;5044220;28;20187;-71
2021/07/06 06:49:00;;;;;;;6.07;1.58;;;;;;;;;;5025132;28;20222;-71
2021/07/06 06:51:25;;;;;;;2.92;1.20;;;;;;;;;;4318776;28;10000768;-71
2021/07/06 06:53:51;;;;;;;8.90;1.63;;;;;;;;;;5019873;28;20182;-71
2021/07/06 06:56:16;;;;;;;3.13;1.33;;;;;;;;;;5010211;28;20205;-71
2021/07/06 06:58:42;;;;;;;2.13;1.63;;;;;;;;;;5011162;28;20595;-68
2021/07/06 07:01:07;;;;;;;4.43;1.42;;;;;;;;;;5008238;28;20507;-71
2021/07/06 07:03:33;;;;;;;5.93;1.67;;;;;;;;;;5021909;28;20181;-71
2021/07/06 07:05:58;;;;;;;4.85;1.65;;;;;;;;;;5015368;28;20645;-72
2021/07/06 07:08:23;;;;;;;2.65;1.70;;;;;;;;;;5005823;28;20189;-72
2021/07/06 07:10:50;;;;;;;5.72;1.75;;;;;;;;;;4992240;28;20202;-72
2021/07/06 07:13:15;;;;;;;3.60;1.65;;;;;;;;;;5019327;28;20216;-68
2021/07/06 07:15:41;;;;;;;4.28;1.65;;;;;;;;;;4996154;28;20269;-70
2021/07/06 07:18:07;;;;;;;11.32;2.22;;;;;;;;;;5021056;28;20196;-72
2021/07/06 07:20:32;;;;;;;4.65;1.73;;;;;;;;;;4993510;28;20306;-71
2021/07/06 07:22:58;;;;;;;3.60;1.25;;;;;;;;;;5012888;28;20185;-70
2021/07/06 07:25:24;;;;;;;3.67;1.92;;;;;;;;;;5019357;28;20183;-72
2021/07/06 07:27:50;;;;;;;9.02;1.70;;;;;;;;;;4995402;28;20182;-72
2021/07/06 07:30:18;;;;;;;3.42;1.30;;;;;;;;;;5021408;28;20245;-72
2021/07/06 07:32:43;;;;;;;4.38;1.45;;;;;;;;;;4993733;28;20197;-72
2021/07/06 07:35:09;;;;;;;2.88;1.50;;;;;;;;;;5021090;28;20281;-71
2021/07/06 07:37:35;;;;;;;3.85;1.67;;;;;;;;;;4995429;28;20194;-71
2021/07/06 07:40:01;;;;;;;3.63;1.48;;;;;;;;;;5006236;28;20229;-72
2021/07/06 07:42:27;;;;;;;3.10;1.42;;;;;;;;;;5011596;28;20284;-73
2021/07/06 07:44:52;;;;;;;3.20;1.42;;;;;;;;;;5019431;28;20281;-71
2021/07/06 07:47:18;;;;;;;2.20;1.30;;;;;;;;;;5012174;28;20275;-72
2021/07/06 07:49:43;;;;;;;5.78;1.40;;;;;;;;;;5002706;28;20551;-73
2021/07/06 07:52:08;;;;;;;4.85;1.10;;;;;;;;;;5024174;28;20210;-71
2021/07/06 07:54:34;;;;;;;4.07;1.20;;;;;;;;;;5011538;28;20200;-70
2021/07/06 07:57:00;;;;;;;1.52;1.13;;;;;;;;;;5021742;28;20186;-71
2021/07/06 07:59:25;;;;;;;3.05;1.27;;;;;;;;;;4996440;28;20216;-71
2021/07/06 08:01:50;;;;;;;1.65;1.10;;;;;;;;;;5023926;28;20174;-72
2021/07/06 08:04:16;;;;;;;3.67;1.38;;;;;;;;;;5014340;28;20546;-72
2021/07/06 08:06:41;;;;;;;2.10;0.90;;;;;;;;;;5016679;28;20190;-76
2021/07/06 08:09:08;;;;;;;3.75;1.20;;;;;;;;;;5013133;28;20182;-72
2021/07/06 08:11:33;;;;;;;1.80;0.93;;;;;;;;;;5021244;28;20201;-70
2021/07/06 08:13:58;;;;;;;1.90;1.10;;;;;;;;;;5010295;28;20300;-73
2021/07/06 08:16:24;;;;;;;4.43;1.20;;;;;;;;;;5019569;28;20182;-71
2021/07/06 08:18:50;;;;;;;1.88;1.10;;;;;;;;;;5011322;28;20236;-73
2021/07/06 08:21:15;;;;;;;2.88;1.13;;;;;;;;;;5020401;28;20581;-72
2021/07/06 08:23:41;;;;;;;2.45;1.20;;;;;;;;;;5017980;28;20217;-73
2021/07/06 08:26:06;;;;;;;2.63;1.30;;;;;;;;;;5016869;28;20638;-75
2021/07/06 08:28:31;;;;;;;4.50;1.50;;;;;;;;;;5004750;28;20714;-75
2021/07/06 08:30:57;;;;;;;2.67;1.10;;;;;;;;;;5015839;28;20212;-72
2021/07/06 08:33:22;;;;;;;2.53;1.00;;;;;;;;;;5020991;28;20197;-73
2021/07/06 08:35:47;;;;;;;2.60;1.10;;;;;;;;;;5013028;28;20725;-73
2021/07/06 08:38:14;;;;;;;2.58;1.08;;;;;;;;;;5015905;28;20193;-74
2021/07/06 08:40:41;;;;;;;1.15;0.82;;;;;;;;;;5006938;28;20657;-77
2021/07/06 08:43:07;;;;;;;2.97;1.05;;;;;;;;;;5022800;28;20189;-71
2021/07/06 08:45:33;;;;;;;2.95;1.05;;;;;;;;;;4994936;28;20336;-73
2021/07/06 08:48:01;;;;;;;2.33;0.98;;;;;;;;;;5017261;28;20237;-69
2021/07/06 08:50:27;;;;;;;2.20;0.98;;;;;;;;;;5019273;28;20289;-72
2021/07/06 08:52:54;;;;;;;2.72;0.85;;;;;;;;;;5005683;28;20297;-75
2021/07/06 08:55:20;;;;;;;2.67;0.82;;;;;;;;;;5007332;28;20269;-73
2021/07/06 08:57:46;;;;;;;2.13;0.75;;;;;;;;;;5009618;28;20186;-71
2021/07/06 09:00:14;;;;;;;2.92;0.93;;;;;;;;;;5019078;28;20202;-74
2021/07/06 09:02:40;;;;;;;2.10;1.08;;;;;;;;;;5014960;28;20621;-73
2021/07/06 09:05:19;;;;;;;1.63;0.75;;;;;;;;;;5024382;28;20264;-74
2021/07/06 09:07:44;;;;;;;2.65;0.90;;;;;;;;;;5015439;28;20189;-72
2021/07/06 09:10:18;;;;;;;2.53;0.90;;;;;;;;;;4999111;28;20202;-75
2021/07/06 09:12:45;;;;;;;3.65;1.00;;;;;;;;;;4995755;28;20185;-74
2021/07/06 09:15:37;;;;;;;4.32;0.95;;;;;;;;;;5022805;28;20521;-70
2021/07/06 09:18:29;;;;;;;1.58;0.85;;;;;;;;;;5010520;28;20258;-76
2021/07/06 09:21:04;;;;;;;3.95;0.88;;;;;;;;;;4999753;28;20208;-74
2021/07/06 09:23:39;;;;;;;3.67;1.00;;;;;;;;;;4997534;28;20185;-74
2021/07/06 09:26:29;;;;;;;1.33;0.82;;;;;;;;;;5021370;28;20265;-74
2021/07/06 09:28:57;;;;;;;3.92;1.05;;;;;;;;;;5012872;28;20243;-73
2021/07/06 09:31:37;;;;;;;4.22;0.70;;;;;;;;;;5021912;28;20278;-73
2021/07/06 09:34:06;;;;;;;1.63;0.75;;;;;;;;;;5000208;28;20190;-76
2021/07/06 09:36:40;;;;;;;2.38;0.70;;;;;;;;;;5024039;28;20234;-76
2021/07/06 09:39:09;;;;;;;1.85;0.65;;;;;;;;;;5012531;28;20193;-72
2021/07/06 09:41:35;;;;;;;2.08;0.70;;;;;;;;;;5021879;28;20195;-74
2021/07/06 09:44:17;;;;;;;1.02;0.80;;;;;;;;;;4996913;28;20556;-74
2021/07/06 09:47:08;;;;;;;2.30;0.90;;;;;;;;;;5021385;28;20661;-76
2021/07/06 09:49:35;;;;;;;0.70;0.70;;;;;;;;;;5004643;28;20757;-72
2021/07/06 09:52:17;;;;;;;2.80;0.73;;;;;;;;;;5021405;28;20373;-75
2021/07/06 09:54:54;;;;;;;2.63;0.60;;;;;;;;;;5008852;28;20270;-74
2021/07/06 09:57:26;;;;;;;1.67;0.82;;;;;;;;;;5006970;28;20185;-71
2021/07/06 10:00:04;;;;;;;4.15;0.73;;;;;;;;;;5014052;28;20243;-74
2021/07/06 10:02:31;;;;;;;1.30;0.77;;;;;;;;;;5017440;28;20202;-72
2021/07/06 10:04:58;;;;;;;3.50;0.60;;;;;;;;;;5009348;28;20839;-71
2021/07/06 10:07:26;;;;;;;1.80;0.63;;;;;;;;;;5024956;28;20200;-73
2021/07/06 10:09:52;;;;;;;2.67;0.65;;;;;;;;;;5016901;28;20557;-76
2021/07/06 10:12:19;;;;;;;1.88;0.70;;;;;;;;;;5027791;28;20269;-73
2021/07/06 10:14:46;;;;;;;1.77;0.82;;;;;;;;;;5020221;28;20201;-74
2021/07/06 10:17:12;;;;;;;3.67;0.90;;;;;;;;;;5007666;28;20205;-77
2021/07/06 10:19:40;;;;;;;1.77;0.70;;;;;;;;;;5011118;28;20186;-71
2021/07/06 10:22:09;;;;;;;5.43;0.70;;;;;;;;;;5016688;28;20188;-71
2021/07/06 10:24:38;;;;;;;1.73;0.75;;;;;;;;;;5022977;28;20194;-73
2021/07/06 10:27:07;;;;;;;4.85;0.80;;;;;;;;;;5017183;28;20240;-72
2021/07/06 10:29:35;;;;;;;3.50;0.70;;;;;;;;;;5023214;28;20189;-77
2021/07/06 10:32:01;;;;;;;4.32;0.60;;;;;;;;;;4998011;28;20279;-73
2021/07/06 10:34:28;;;;;;;4.90;0.98;;;;;;;;;;5023978;28;20190;-75
2021/07/06 10:36:55;;;;;;;1.63;0.50;;;;;;;;;;4997498;28;20193;-71
2021/07/06 10:39:49;;;;;;;3.70;0.70;;;;;;;;;;5022110;28;20357;-72
2021/07/06 10:42:15;;;;;;;0.95;0.47;;;;;;;;;;5004121;28;20289;-74
2021/07/06 10:44:42;;;;;;;2.30;0.70;;;;;;;;;;5025390;28;20270;-76
2021/07/06 10:47:33;;;;;;;1.60;0.65;;;;;;;;;;5016007;28;20229;-73
2021/07/06 10:49:59;;;;;;;0.68;0.50;;;;;;;;;;5024325;28;20190;-73
2021/07/06 10:52:34;;;;;;;3.50;0.90;;;;;;;;;;5012328;28;20185;-72
2021/07/06 10:55:31;;;;;;;3.70;0.98;;;;;;;;;;5022779;28;20206;-77
2021/07/06 10:57:56;;;;;;;3.00;0.70;;;;;;;;;;5009754;28;20367;-74
2021/07/06 11:00:39;;;;;;;1.15;0.60;;;;;;;;;;5026262;28;20288;-77
2021/07/06 11:03:19;;;;;;;3.70;0.82;;;;;;;;;;4998398;28;20324;-73
2021/07/06 11:05:45;;;;;;;4.18;0.70;;;;;;;;;;5008974;28;20178;-75
2021/07/06 11:08:41;;;;;;;1.27;0.70;;;;;;;;;;5015448;28;20186;-74
2021/07/06 11:11:08;;;;;;;4.68;0.85;;;;;;;;;;5023450;28;20190;-73
2021/07/06 11:13:34;;;;;;;4.82;1.00;;;;;;;;;;5016164;28;20205;-75
2021/07/06 11:16:02;;;;;;;2.70;0.65;;;;;;;;;;5029549;28;20178;-74
2021/07/06 11:18:36;;;;;;;2.30;0.55;;;;;;;;;;5013438;28;20228;-69
2021/07/06 11:21:02;;;;;;;2.75;1.33;;;;;;;;;;5025048;28;20170;-71
2021/07/06 11:23:33;;;;;;;6.25;0.90;;;;;;;;;;5016990;28;20194;-75
2021/07/06 11:26:03;;;;;;;3.10;0.68;;;;;;;;;;5017971;28;20187;-73
2021/07/06 11:28:29;;;;;;;4.00;0.70;;;;;;;;;;5000205;28;20182;-78
2021/07/06 11:30:59;;;;;;;4.63;0.60;;;;;;;;;;5024765;28;20599;-74
2021/07/06 11:33:31;;;;;;;2.75;0.80;;;;;;;;;;5024809;28;20756;-72
2021/07/06 11:36:00;;;;;;;5.13;0.90;;;;;;;;;;5013031;28;20594;-74
2021/07/06 11:38:46;;;;;;;3.35;0.85;;;;;;;;;;5004265;28;20195;-72
2021/07/06 11:41:13;;;;;;;2.60;0.65;;;;;;;;;;5015906;28;20662;-74
2021/07/06 11:43:39;;;;;;;1.65;0.95;;;;;;;;;;5022822;28;20179;-70
2021/07/06 11:46:09;;;;;;;4.88;1.35;;;;;;;;;;5010701;28;20618;-73
2021/07/06 11:48:37;;;;;;;3.78;0.60;;;;;;;;;;5025433;28;20222;-74
2021/07/06 11:51:05;;;;;;;1.67;1.00;;;;;;;;;;5000165;28;20634;-77
2021/07/06 11:53:33;;;;;;;5.15;0.70;;;;;;;;;;5023431;28;20222;-71
2021/07/06 11:56:00;;;;;;;1.38;0.63;;;;;;;;;;5017974;28;20197;-77
2021/07/06 11:58:29;;;;;;;7.32;0.93;;;;;;;;;;5007272;28;20223;-73
2021/07/06 12:00:56;;;;;;;8.13;1.30;;;;;;;;;;5017390;28;20214;-74
2021/07/06 12:03:29;;;;;;;8.50;0.73;;;;;;;;;;5026204;28;20178;-76
2021/07/06 12:06:06;;;;;;;6.18;0.82;;;;;;;;;;4990447;28;20193;-76
2021/07/06 12:08:33;;;;;;;3.75;0.90;;;;;;;;;;5007993;28;20205;-74
2021/07/06 12:11:12;;;;;;;3.15;0.82;;;;;;;;;;5013307;28;20214;-74
2021/07/06 12:13:40;;;;;;;3.05;0.82;;;;;;;;;;5009911;28;20178;-72
2021/07/06 12:16:14;;;;;;;3.28;0.70;;;;;;;;;;5014977;28;20315;-75
2021/07/06 12:19:00;;;;;;;3.03;1.00;;;;;;;;;;5021293;28;20209;-76
2021/07/06 12:21:31;;;;;;;2.72;0.60;;;;;;;;;;5011710;28;20202;-72
2021/07/06 12:24:00;;;;;;;5.65;0.80;;;;;;;;;;5022956;28;20541;-75
2021/07/06 12:26:27;;;;;;;4.25;0.98;;;;;;;;;;5015971;28;20190;-69
2021/07/06 12:28:53;;;;;;;5.13;0.70;;;;;;;;;;5025928;28;20240;-76
2021/07/06 12:31:25;;;;;;;1.92;0.80;;;;;;;;;;5020848;28;20786;-73
2021/07/06 12:34:06;;;;;;;2.03;1.20;;;;;;;;;;5015243;28;20285;-74
2021/07/06 12:36:45;;;;;;;7.00;1.23;;;;;;;;;;5024140;28;20186;-75
2021/07/06 12:39:33;;;;;;;5.75;0.88;;;;;;;;;;5002196;28;20628;-72
2021/07/06 12:41:59;;;;;;;6.93;1.38;;;;;;;;;;5001034;28;20171;-77
2021/07/06 12:44:34;;;;;;;3.83;0.90;;;;;;;;;;5011567;28;20196;-71
2021/07/06 12:47:18;;;;;;;4.68;1.00;;;;;;;;;;5006202;28;20177;-74
2021/07/06 12:49:50;;;;;;;4.57;1.05;;;;;;;;;;5013362;28;20529;-71
2021/07/06 12:52:16;;;;;;;2.72;1.10;;;;;;;;;;5019785;28;20217;-71
2021/07/06 12:54:44;;;;;;;6.25;1.10;;;;;;;;;;5015418;28;20290;-76
2021/07/06 12:57:29;;;;;;;4.75;1.00;;;;;;;;;;5021539;28;20257;-77
2021/07/06 13:00:13;;;;;;;9.35;1.40;;;;;;;;;;4995813;28;20205;-73
2021/07/06 13:02:40;;;;;;;4.00;0.90;;;;;;;;;;5024842;28;20601;-72
2021/07/06 13:05:17;;;;;;;5.57;0.85;;;;;;;;;;4992471;28;20222;-76
2021/07/06 13:07:45;;;;;;;5.18;1.02;;;;;;;;;;5005986;28;20212;-75
2021/07/06 13:10:14;;;;;;;5.53;0.85;;;;;;;;;;5015170;28;20549;-72
2021/07/06 13:12:42;;;;;;;4.60;0.90;;;;;;;;;;5024208;28;20725;-74
2021/07/06 13:15:10;;;;;;;5.80;0.73;;;;;;;;;;5012696;28;20529;-75
2021/07/06 13:17:42;;;;;;;6.28;1.05;;;;;;;;;;5025263;28;20313;-72
2021/07/06 13:20:15;;;;;;;6.93;1.15;;;;;;;;;;4994060;28;20186;-73
2021/07/06 13:22:42;;;;;;;4.43;1.13;;;;;;;;;;5021989;28;20182;-74
2021/07/06 13:25:09;;;;;;;9.40;1.10;;;;;;;;;;5014937;28;20247;-75
2021/07/06 13:27:37;;;;;;;4.65;0.75;;;;;;;;;;5005718;28;20197;-75
2021/07/06 13:30:11;;;;;;;5.35;0.90;;;;;;;;;;5008728;28;20673;-77
2021/07/06 13:32:47;;;;;;;16.60;1.85;;;;;;;;;;5000630;28;20229;-72
2021/07/06 13:35:15;;;;;;;2.97;0.88;;;;;;;;;;5014993;28;20693;-71
2021/07/06 13:37:42;;;;;;;3.63;0.77;;;;;;;;;;5020455;28;20186;-72
2021/07/06 13:40:13;;;;;;;5.82;1.20;;;;;;;;;;5009202;28;20191;-73
2021/07/06 13:42:39;;;;;;;7.80;1.30;;;;;;;;;;5019336;28;20202;-73
2021/07/06 13:45:08;;;;;;;4.82;1.00;;;;;;;;;;5019032;28;20265;-72
2021/07/06 13:47:36;;;;;;;5.70;1.00;;;;;;;;;;5009698;28;20527;-74
2021/07/06 13:50:13;;;;;;;5.20;1.20;;;;;;;;;;5019069;28;20174;-72
2021/07/06 13:52:39;;;;;;;4.72;1.10;;;;;;;;;;5012432;28;20189;-72
2021/07/06 13:55:06;;;;;;;2.65;0.88;;;;;;;;;;5018952;28;20314;-77
2021/07/06 13:57:33;;;;;;;7.25;0.90;;;;;;;;;;5009967;28;20189;-73
2021/07/06 13:59:58;;;;;;;8.27;1.10;;;;;;;;;;5020322;28;20209;-76
2021/07/06 14:02:24;;;;;;;7.13;1.23;;;;;;;;;;5009221;28;20185;-75
2021/07/06 14:04:49;;;;;;;2.97;0.85;;;;;;;;;;5024069;28;20182;-77
2021/07/06 14:07:16;;;;;;;4.20;0.88;;;;;;;;;;5011948;28;20633;-76
2021/07/06 14:09:42;;;;;;;5.82;1.15;;;;;;;;;;5023923;28;20261;-71
2021/07/06 14:12:08;;;;;;;3.40;0.93;;;;;;;;;;5010086;28;20226;-78
2021/07/06 14:14:33;;;;;;;7.22;1.30;;;;;;;;;;5005445;28;20185;-78
2021/07/06 14:16:59;;;;;;;5.78;1.42;;;;;;;;;;5010615;28;20194;-70
2021/07/06 14:19:25;;;;;;;5.10;1.10;;;;;;;;;;5021644;28;20218;-71
2021/07/06 14:21:51;;;;;;;4.97;1.30;;;;;;;;;;5021115;28;20217;-71
2021/07/06 14:24:16;;;;;;;8.25;1.58;;;;;;;;;;5012931;28;20265;-73
2021/07/06 14:26:42;;;;;;;5.20;1.50;;;;;;;;;;5018108;28;20193;-73
2021/07/06 14:29:07;;;;;;;7.03;1.42;;;;;;;;;;5011424;28;20182;-69
2021/07/06 14:31:33;;;;;;;5.90;1.30;;;;;;;;;;5004948;28;20205;-74
2021/07/06 14:33:58;;;;;;;5.22;1.17;;;;;;;;;;5011417;28;20186;-75
2021/07/06 14:36:24;;;;;;;3.85;1.17;;;;;;;;;;5001365;28;20202;-71
2021/07/06 14:38:50;;;;;;;11.43;1.88;;;;;;;;;;4997021;28;20186;-77
2021/07/06 14:41:16;;;;;;;7.40;1.45;;;;;;;;;;5016846;28;20190;-74
2021/07/06 14:43:43;;;;;;;7.00;1.67;;;;;;;;;;5007623;28;20554;-73
2021/07/06 14:46:09;;;;;;;5.60;1.55;;;;;;;;;;5019281;28;20658;-72
2021/07/06 14:48:34;;;;;;;7.88;1.23;;;;;;;;;;5026221;28;20352;-72